Time;durP1;ratioP1;P1;durP2;ratioP2;P2;SDS_P1;SDS_P2;PMS_P1;PMS_P2;Temp;Humidity;BMP_temperature;BMP_pressure;BME280_temperature;BME280_humidity;BME280_pressure;Samples;Min_cycle;Max_cycle;Signal;HPM_P1;HPM_P2
2021/04/07 00:01:58;;;;;;;;;;;19.70;26.60;;;;;;491589;240;1079;-68
2021/04/07 00:03:59;;;;;;;;;;;19.70;26.60;;;;;;491576;240;1059;-68
2021/04/07 00:06:01;;;;;;;;;;;19.70;26.60;;;;;;491623;240;954;-68
2021/04/07 00:08:02;;;;;;;;;;;19.80;26.60;;;;;;491737;240;996;-68
2021/04/07 00:10:03;;;;;;;;;;;19.70;26.60;;;;;;491705;240;2185;-68
2021/04/07 00:12:04;;;;;;;;;;;19.80;26.60;;;;;;491625;240;1266;-68
2021/04/07 00:14:06;;;;;;;;;;;19.80;26.50;;;;;;491637;240;978;-68
2021/04/07 00:16:07;;;;;;;;;;;19.80;26.50;;;;;;491622;240;974;-68
2021/04/07 00:18:08;;;;;;;;;;;19.70;26.60;;;;;;491653;240;1045;-68
2021/04/07 00:20:09;;;;;;;;;;;19.70;26.60;;;;;;491674;240;1124;-68
2021/04/07 00:22:11;;;;;;;;;;;19.80;26.50;;;;;;491556;240;1091;-68
2021/04/07 00:24:12;;;;;;;;;;;19.70;26.50;;;;;;491608;240;927;-68
2021/04/07 00:26:13;;;;;;;;;;;19.80;26.40;;;;;;491600;240;1022;-68
2021/04/07 00:28:20;;;;;;;;;;;19.90;26.40;;;;;;491552;240;1139;-68
2021/04/07 00:30:16;;;;;;;;;;;19.70;26.50;;;;;;491622;241;2144;-68
2021/04/07 00:32:17;;;;;;;;;;;19.70;26.50;;;;;;491580;240;1119;-68
2021/04/07 00:34:19;;;;;;;;;;;19.60;26.60;;;;;;491588;240;1144;-68
2021/04/07 00:36:20;;;;;;;;;;;19.80;26.50;;;;;;491600;240;1206;-68
2021/04/07 00:38:22;;;;;;;;;;;19.80;26.50;;;;;;491630;240;1089;-68
2021/04/07 00:40:23;;;;;;;;;;;19.80;26.60;;;;;;491641;240;1090;-68
2021/04/07 00:42:24;;;;;;;;;;;19.80;26.60;;;;;;491538;240;1222;-68
2021/04/07 00:44:25;;;;;;;;;;;19.80;26.60;;;;;;491646;240;1039;-69
2021/04/07 00:46:27;;;;;;;;;;;19.80;26.60;;;;;;491529;240;1443;-68
2021/04/07 00:48:28;;;;;;;;;;;19.80;26.50;;;;;;491647;240;1122;-68
2021/04/07 00:50:30;;;;;;;;;;;19.70;26.60;;;;;;491601;240;2176;-68
2021/04/07 00:52:31;;;;;;;;;;;19.70;26.70;;;;;;491646;240;1016;-68
2021/04/07 00:54:32;;;;;;;;;;;19.70;26.60;;;;;;491656;240;1029;-68
2021/04/07 00:56:33;;;;;;;;;;;19.70;26.60;;;;;;491585;240;1011;-68
2021/04/07 00:58:35;;;;;;;;;;;19.70;26.60;;;;;;491753;240;1303;-68
2021/04/07 01:00:36;;;;;;;;;;;19.70;26.60;;;;;;491711;240;1261;-68
2021/04/07 01:02:37;;;;;;;;;;;19.70;26.70;;;;;;491663;240;970;-68
2021/04/07 01:04:39;;;;;;;;;;;19.70;26.70;;;;;;491760;240;1078;-68
2021/04/07 01:06:40;;;;;;;;;;;19.70;26.70;;;;;;491588;240;1022;-68
2021/04/07 01:08:41;;;;;;;;;;;19.70;26.70;;;;;;491638;240;1081;-68
2021/04/07 01:10:44;;;;;;;;;;;19.70;26.70;;;;;;491625;240;2195;-68
2021/04/07 01:12:44;;;;;;;;;;;19.70;26.70;;;;;;491626;241;1417;-68
2021/04/07 01:14:45;;;;;;;;;;;19.60;26.80;;;;;;491688;240;1068;-68
2021/04/07 01:16:46;;;;;;;;;;;19.50;26.90;;;;;;491613;240;1080;-68
2021/04/07 01:18:48;;;;;;;;;;;19.60;26.90;;;;;;491628;240;951;-68
2021/04/07 01:20:49;;;;;;;;;;;19.70;26.80;;;;;;491679;240;1063;-68
2021/04/07 01:22:50;;;;;;;;;;;19.70;26.90;;;;;;491616;240;1114;-68
2021/04/07 01:24:51;;;;;;;;;;;19.60;26.80;;;;;;491758;240;1022;-68
2021/04/07 01:26:53;;;;;;;;;;;19.60;27.00;;;;;;491541;240;1226;-68
2021/04/07 01:28:54;;;;;;;;;;;19.60;27.00;;;;;;491671;240;1157;-68
2021/04/07 01:30:55;;;;;;;;;;;19.60;26.90;;;;;;491615;240;2184;-68
2021/04/07 01:32:56;;;;;;;;;;;19.60;27.00;;;;;;491644;240;1088;-68
2021/04/07 01:34:58;;;;;;;;;;;19.60;27.10;;;;;;491651;240;1087;-68
2021/04/07 01:37:00;;;;;;;;;;;19.50;27.10;;;;;;491590;240;1225;-68
2021/04/07 01:39:00;;;;;;;;;;;19.40;27.10;;;;;;491623;241;1405;-68
2021/04/07 01:41:02;;;;;;;;;;;19.40;27.10;;;;;;491646;240;962;-68
2021/04/07 01:43:03;;;;;;;;;;;19.40;27.20;;;;;;491634;240;1065;-68
2021/04/07 01:45:04;;;;;;;;;;;19.40;27.20;;;;;;491632;240;1181;-68
2021/04/07 01:47:06;;;;;;;;;;;19.40;27.20;;;;;;491609;240;1315;-68
2021/04/07 01:49:07;;;;;;;;;;;19.40;27.10;;;;;;491609;240;1081;-68
2021/04/07 01:51:08;;;;;;;;;;;19.50;27.20;;;;;;491542;240;2191;-68
2021/04/07 01:53:09;;;;;;;;;;;19.50;27.20;;;;;;491683;240;1065;-68
2021/04/07 01:55:11;;;;;;;;;;;19.50;27.10;;;;;;491666;240;1053;-68
2021/04/07 01:57:12;;;;;;;;;;;19.40;27.20;;;;;;491634;240;1183;-68
2021/04/07 01:59:13;;;;;;;;;;;19.50;27.20;;;;;;491814;238;1281;-68
2021/04/07 02:01:15;;;;;;;;;;;19.40;27.20;;;;;;491610;240;1272;-68
2021/04/07 02:03:16;;;;;;;;;;;19.30;27.30;;;;;;491587;240;959;-68
2021/04/07 02:05:17;;;;;;;;;;;19.40;27.30;;;;;;491611;240;1050;-68
2021/04/07 02:07:18;;;;;;;;;;;19.50;27.30;;;;;;491628;240;1191;-68
2021/04/07 02:09:20;;;;;;;;;;;19.40;27.30;;;;;;491629;240;1084;-68
2021/04/07 02:11:21;;;;;;;;;;;19.40;27.30;;;;;;491619;240;2192;-68
2021/04/07 02:13:22;;;;;;;;;;;19.40;27.30;;;;;;491661;240;1070;-68
2021/04/07 02:15:23;;;;;;;;;;;19.40;27.30;;;;;;491554;240;1138;-68
2021/04/07 02:17:25;;;;;;;;;;;19.40;27.30;;;;;;491695;240;1108;-68
2021/04/07 02:19:26;;;;;;;;;;;19.40;27.30;;;;;;491541;240;1041;-68
2021/04/07 02:21:27;;;;;;;;;;;19.40;27.30;;;;;;491528;240;1209;-68
2021/04/07 02:23:29;;;;;;;;;;;19.30;27.40;;;;;;491670;240;1082;-68
2021/04/07 02:25:30;;;;;;;;;;;19.40;27.40;;;;;;491697;240;1075;-68
2021/04/07 02:27:34;;;;;;;;;;;19.30;27.40;;;;;;491573;240;1084;-68
2021/04/07 02:29:33;;;;;;;;;;;19.30;27.40;;;;;;491655;240;1477;-68
2021/04/07 02:31:35;;;;;;;;;;;19.40;27.40;;;;;;491663;240;2188;-68
2021/04/07 02:33:36;;;;;;;;;;;19.40;27.50;;;;;;491647;240;1026;-68
2021/04/07 02:35:37;;;;;;;;;;;19.40;27.50;;;;;;491607;240;1298;-68
2021/04/07 02:37:38;;;;;;;;;;;19.30;27.50;;;;;;491674;240;1086;-68
2021/04/07 02:39:40;;;;;;;;;;;19.40;27.40;;;;;;491615;240;1036;-68
2021/04/07 02:41:41;;;;;;;;;;;19.40;27.40;;;;;;491624;240;1158;-67
2021/04/07 02:43:42;;;;;;;;;;;19.30;27.40;;;;;;491585;240;1091;-68
2021/04/07 02:45:44;;;;;;;;;;;19.20;27.50;;;;;;491558;240;1391;-68
2021/04/07 02:47:45;;;;;;;;;;;19.30;27.50;;;;;;491702;240;1030;-68
2021/04/07 02:49:46;;;;;;;;;;;19.30;27.50;;;;;;491623;240;972;-68
2021/04/07 02:51:48;;;;;;;;;;;19.30;27.40;;;;;;491580;240;2184;-68
2021/04/07 02:53:49;;;;;;;;;;;19.30;27.50;;;;;;491629;240;1242;-68
2021/04/07 02:55:50;;;;;;;;;;;19.30;27.50;;;;;;491645;240;1208;-68
2021/04/07 02:57:51;;;;;;;;;;;19.30;27.50;;;;;;491537;240;1220;-68
2021/04/07 02:59:52;;;;;;;;;;;19.40;27.40;;;;;;491632;240;1125;-68
2021/04/07 03:01:54;;;;;;;;;;;19.30;27.40;;;;;;491619;240;1064;-68
2021/04/07 03:03:55;;;;;;;;;;;19.30;27.40;;;;;;491566;240;1021;-68
2021/04/07 03:05:56;;;;;;;;;;;19.30;27.40;;;;;;491621;240;959;-68
2021/04/07 03:07:58;;;;;;;;;;;19.30;27.40;;;;;;491606;240;1030;-68
2021/04/07 03:09:59;;;;;;;;;;;19.40;27.40;;;;;;491707;240;992;-68
2021/04/07 03:12:00;;;;;;;;;;;19.40;27.40;;;;;;491663;240;2187;-68
2021/04/07 03:14:01;;;;;;;;;;;19.40;27.20;;;;;;491578;240;995;-68
2021/04/07 03:16:03;;;;;;;;;;;19.40;27.20;;;;;;491589;240;1154;-68
2021/04/07 03:18:04;;;;;;;;;;;19.30;27.30;;;;;;491580;240;959;-68
2021/04/07 03:20:05;;;;;;;;;;;19.40;27.40;;;;;;491586;240;1073;-68
2021/04/07 03:22:06;;;;;;;;;;;19.40;27.30;;;;;;491606;240;1064;-68
2021/04/07 03:24:08;;;;;;;;;;;19.40;27.30;;;;;;491689;240;987;-68
2021/04/07 03:26:09;;;;;;;;;;;19.30;27.30;;;;;;491681;240;954;-68
2021/04/07 03:28:10;;;;;;;;;;;19.30;27.30;;;;;;491582;240;1069;-68
2021/04/07 03:30:12;;;;;;;;;;;19.40;27.30;;;;;;491643;240;1178;-68
2021/04/07 03:32:13;;;;;;;;;;;19.30;27.30;;;;;;491597;240;2125;-68
2021/04/07 03:34:14;;;;;;;;;;;19.30;27.30;;;;;;491608;240;972;-68
2021/04/07 03:36:15;;;;;;;;;;;19.40;27.30;;;;;;491621;240;1107;-68
2021/04/07 03:38:17;;;;;;;;;;;19.30;27.30;;;;;;491670;240;1008;-68
2021/04/07 03:40:18;;;;;;;;;;;19.30;27.40;;;;;;491620;240;963;-68
2021/04/07 03:42:19;;;;;;;;;;;19.30;27.30;;;;;;491572;240;1089;-68
2021/04/07 03:44:22;;;;;;;;;;;19.40;27.30;;;;;;491574;240;950;-68
2021/04/07 03:46:22;;;;;;;;;;;19.30;27.30;;;;;;491607;242;1335;-68
2021/04/07 03:48:23;;;;;;;;;;;19.30;27.30;;;;;;491618;240;1067;-68
2021/04/07 03:50:25;;;;;;;;;;;19.30;27.30;;;;;;491600;240;2141;-68
2021/04/07 03:52:26;;;;;;;;;;;19.30;27.40;;;;;;491493;240;1147;-68
2021/04/07 03:54:27;;;;;;;;;;;19.40;27.30;;;;;;491581;240;1047;-68
2021/04/07 03:56:28;;;;;;;;;;;19.30;27.30;;;;;;491554;240;1225;-68
2021/04/07 03:58:30;;;;;;;;;;;19.30;27.30;;;;;;491526;240;1086;-68
2021/04/07 04:00:31;;;;;;;;;;;19.30;27.30;;;;;;491575;240;1124;-68
2021/04/07 04:02:32;;;;;;;;;;;19.30;27.30;;;;;;491585;240;1186;-68
2021/04/07 04:04:34;;;;;;;;;;;19.20;27.30;;;;;;491645;240;939;-68
2021/04/07 04:06:35;;;;;;;;;;;19.30;27.30;;;;;;491736;240;1218;-68
2021/04/07 04:08:36;;;;;;;;;;;19.30;27.30;;;;;;491531;240;1251;-68
2021/04/07 04:10:37;;;;;;;;;;;19.30;27.30;;;;;;491667;240;2188;-68
2021/04/07 04:12:39;;;;;;;;;;;19.30;27.30;;;;;;491592;240;1206;-68
2021/04/07 04:14:40;;;;;;;;;;;19.30;27.50;;;;;;491554;240;1055;-68
2021/04/07 04:16:43;;;;;;;;;;;19.20;27.40;;;;;;491608;240;1173;-68
2021/04/07 04:18:43;;;;;;;;;;;19.20;27.40;;;;;;491567;240;1376;-68
2021/04/07 04:20:44;;;;;;;;;;;19.30;27.50;;;;;;491458;240;960;-68
2021/04/07 04:22:45;;;;;;;;;;;19.20;27.40;;;;;;491509;240;1071;-68
2021/04/07 04:24:47;;;;;;;;;;;19.30;27.40;;;;;;491496;240;1002;-68
2021/04/07 04:26:48;;;;;;;;;;;19.20;27.50;;;;;;491477;240;1007;-68
2021/04/07 04:28:49;;;;;;;;;;;19.20;27.50;;;;;;491493;240;974;-68
2021/04/07 04:30:50;;;;;;;;;;;19.30;27.50;;;;;;491459;240;2168;-68
2021/04/07 04:32:52;;;;;;;;;;;19.30;27.40;;;;;;491527;240;1201;-68
2021/04/07 04:34:53;;;;;;;;;;;19.30;27.40;;;;;;491497;240;1053;-68
2021/04/07 04:36:54;;;;;;;;;;;19.30;27.40;;;;;;491439;240;1147;-68
2021/04/07 04:38:56;;;;;;;;;;;19.30;27.40;;;;;;491503;239;1293;-68
2021/04/07 04:40:57;;;;;;;;;;;19.20;27.40;;;;;;491578;240;1062;-68
2021/04/07 04:42:58;;;;;;;;;;;19.20;27.40;;;;;;491529;240;1130;-68
2021/04/07 04:44:59;;;;;;;;;;;19.20;27.50;;;;;;491434;240;1067;-68
2021/04/07 04:47:01;;;;;;;;;;;19.20;27.40;;;;;;491298;240;1205;-68
2021/04/07 04:49:02;;;;;;;;;;;19.20;27.40;;;;;;491442;240;1067;-68
2021/04/07 04:51:03;;;;;;;;;;;19.20;27.40;;;;;;491330;240;2171;-68
2021/04/07 04:53:04;;;;;;;;;;;19.30;27.30;;;;;;491432;240;1102;-68
2021/04/07 04:55:06;;;;;;;;;;;19.30;27.30;;;;;;491446;240;966;-68
2021/04/07 04:57:07;;;;;;;;;;;19.20;27.40;;;;;;491385;240;1039;-68
2021/04/07 04:59:08;;;;;;;;;;;19.20;27.40;;;;;;491372;240;1051;-68
2021/04/07 05:01:10;;;;;;;;;;;19.20;27.40;;;;;;491297;240;1340;-68
2021/04/07 05:03:11;;;;;;;;;;;19.20;27.30;;;;;;491397;240;1123;-68
2021/04/07 05:05:12;;;;;;;;;;;19.20;27.30;;;;;;491352;240;1015;-68
2021/04/07 05:07:13;;;;;;;;;;;19.30;27.20;;;;;;491290;240;1286;-68
2021/04/07 05:09:15;;;;;;;;;;;19.20;27.20;;;;;;491289;240;1029;-68
2021/04/07 05:11:16;;;;;;;;;;;19.20;27.20;;;;;;491278;240;2196;-68
2021/04/07 05:13:18;;;;;;;;;;;19.20;27.30;;;;;;491288;240;1116;-68
2021/04/07 05:15:19;;;;;;;;;;;19.10;27.30;;;;;;491380;240;973;-68
2021/04/07 05:17:20;;;;;;;;;;;19.10;27.30;;;;;;491310;240;1183;-68
2021/04/07 05:19:22;;;;;;;;;;;19.20;27.30;;;;;;491321;240;1109;-68
2021/04/07 05:21:23;;;;;;;;;;;19.20;27.20;;;;;;491249;240;1046;-68
2021/04/07 05:23:24;;;;;;;;;;;19.20;27.20;;;;;;491218;240;1042;-68
2021/04/07 05:25:25;;;;;;;;;;;19.30;27.10;;;;;;491314;240;1135;-68
2021/04/07 05:27:27;;;;;;;;;;;19.30;27.10;;;;;;491353;240;1231;-68
2021/04/07 05:29:28;;;;;;;;;;;19.20;27.10;;;;;;491221;240;1075;-68
2021/04/07 05:31:29;;;;;;;;;;;19.20;27.10;;;;;;491229;240;2193;-68
2021/04/07 05:33:31;;;;;;;;;;;19.20;27.10;;;;;;491232;240;1028;-68
2021/04/07 05:35:32;;;;;;;;;;;19.30;27.10;;;;;;491331;240;1277;-68
2021/04/07 05:37:33;;;;;;;;;;;19.30;27.00;;;;;;491233;240;1337;-68
2021/04/07 05:39:34;;;;;;;;;;;19.30;27.00;;;;;;491169;240;1158;-68
2021/04/07 05:41:36;;;;;;;;;;;19.30;27.00;;;;;;491236;240;1321;-68
2021/04/07 05:43:37;;;;;;;;;;;19.30;27.10;;;;;;491280;240;1042;-68
2021/04/07 05:45:38;;;;;;;;;;;19.30;27.00;;;;;;491218;240;1010;-68
2021/04/07 05:47:40;;;;;;;;;;;19.30;26.90;;;;;;491243;240;1214;-68
2021/04/07 05:49:41;;;;;;;;;;;19.30;27.00;;;;;;491141;240;1046;-68
2021/04/07 05:51:42;;;;;;;;;;;19.30;27.00;;;;;;491045;240;2153;-68
2021/04/07 05:53:43;;;;;;;;;;;19.30;27.00;;;;;;491039;240;1096;-68
2021/04/07 05:55:45;;;;;;;;;;;19.30;26.90;;;;;;490972;240;1135;-67
2021/04/07 05:57:46;;;;;;;;;;;19.40;26.80;;;;;;491092;240;1170;-67
2021/04/07 05:59:47;;;;;;;;;;;19.40;26.80;;;;;;491112;240;1033;-67
2021/04/07 06:01:49;;;;;;;;;;;19.40;26.80;;;;;;491052;240;1174;-67
2021/04/07 06:03:50;;;;;;;;;;;19.30;26.80;;;;;;491062;240;1120;-68
2021/04/07 06:05:52;;;;;;;;;;;19.30;26.80;;;;;;491048;240;1053;-68
2021/04/07 06:07:53;;;;;;;;;;;19.30;26.80;;;;;;490996;240;1130;-68
2021/04/07 06:09:54;;;;;;;;;;;19.40;26.80;;;;;;490682;240;968;-68
2021/04/07 06:11:56;;;;;;;;;;;19.40;26.80;;;;;;490966;240;2164;-68
2021/04/07 06:13:57;;;;;;;;;;;19.40;26.80;;;;;;491089;240;1067;-68
2021/04/07 06:15:58;;;;;;;;;;;19.40;26.80;;;;;;490871;240;1202;-68
2021/04/07 06:18:01;;;;;;;;;;;19.30;26.70;;;;;;491000;240;1219;-68
2021/04/07 06:20:01;;;;;;;;;;;19.40;26.80;;;;;;490962;241;1260;-68
2021/04/07 06:22:02;;;;;;;;;;;19.40;26.70;;;;;;490830;240;1115;-68
2021/04/07 06:24:04;;;;;;;;;;;19.40;26.80;;;;;;490814;240;1133;-68
2021/04/07 06:26:05;;;;;;;;;;;19.70;26.60;;;;;;490824;240;1121;-68
2021/04/07 06:28:07;;;;;;;;;;;19.50;26.50;;;;;;490997;240;1507;-68
2021/04/07 06:30:08;;;;;;;;;;;19.50;26.60;;;;;;491097;240;1294;-68
2021/04/07 06:32:09;;;;;;;;;;;19.50;26.60;;;;;;491042;240;2176;-68
2021/04/07 06:34:10;;;;;;;;;;;19.50;26.60;;;;;;490952;240;1257;-68
2021/04/07 06:36:12;;;;;;;;;;;19.50;26.60;;;;;;490909;240;1185;-68
2021/04/07 06:38:13;;;;;;;;;;;19.40;26.60;;;;;;490992;240;1402;-68
2021/04/07 06:40:14;;;;;;;;;;;19.40;26.60;;;;;;490951;240;1137;-68
2021/04/07 06:42:16;;;;;;;;;;;19.40;26.70;;;;;;490992;240;1110;-68
2021/04/07 06:44:17;;;;;;;;;;;19.40;26.70;;;;;;490836;240;1124;-68
2021/04/07 06:46:18;;;;;;;;;;;19.30;26.70;;;;;;490880;240;1240;-68
2021/04/07 06:48:19;;;;;;;;;;;19.40;26.70;;;;;;491106;240;1345;-68
2021/04/07 06:50:21;;;;;;;;;;;19.50;26.60;;;;;;490931;240;1158;-68
2021/04/07 06:52:22;;;;;;;;;;;19.50;26.60;;;;;;490875;240;2176;-68
2021/04/07 06:54:24;;;;;;;;;;;19.40;26.60;;;;;;490812;240;1002;-68
2021/04/07 06:56:25;;;;;;;;;;;19.50;26.50;;;;;;490799;240;1396;-68
2021/04/07 06:58:26;;;;;;;;;;;19.50;26.60;;;;;;491005;240;1121;-68
2021/04/07 07:00:27;;;;;;;;;;;19.50;26.60;;;;;;490988;240;1069;-68
2021/04/07 07:02:30;;;;;;;;;;;19.60;26.50;;;;;;490927;240;1300;-68
2021/04/07 07:04:30;;;;;;;;;;;19.50;26.50;;;;;;490885;241;1388;-68
2021/04/07 07:06:31;;;;;;;;;;;19.50;26.50;;;;;;490888;240;1147;-68
2021/04/07 07:08:32;;;;;;;;;;;19.60;26.50;;;;;;490873;240;1084;-67
2021/04/07 07:10:34;;;;;;;;;;;19.50;26.50;;;;;;490635;240;1115;-68
2021/04/07 07:12:35;;;;;;;;;;;19.60;26.50;;;;;;490842;240;2180;-68
2021/04/07 07:14:36;;;;;;;;;;;19.50;26.40;;;;;;490887;242;1075;-68
2021/04/07 07:16:38;;;;;;;;;;;19.60;26.50;;;;;;490798;240;1157;-68
2021/04/07 07:18:39;;;;;;;;;;;19.60;26.50;;;;;;490714;240;1232;-68
2021/04/07 07:20:40;;;;;;;;;;;19.70;26.50;;;;;;490646;240;1209;-68
2021/04/07 07:22:41;;;;;;;;;;;19.70;26.40;;;;;;490786;240;1100;-68
2021/04/07 07:24:43;;;;;;;;;;;19.70;26.40;;;;;;490905;240;1172;-68
2021/04/07 07:26:44;;;;;;;;;;;19.70;26.40;;;;;;490878;240;1151;-68
2021/04/07 07:28:47;;;;;;;;;;;19.70;26.30;;;;;;490882;240;1057;-68
2021/04/07 07:30:47;;;;;;;;;;;19.70;26.30;;;;;;490795;242;1418;-68
2021/04/07 07:32:48;;;;;;;;;;;19.60;26.30;;;;;;490888;240;2112;-68
2021/04/07 07:34:49;;;;;;;;;;;19.70;26.40;;;;;;490691;240;1089;-68
2021/04/07 07:36:51;;;;;;;;;;;19.80;26.30;;;;;;490743;238;1442;-68
2021/04/07 07:38:52;;;;;;;;;;;19.70;26.30;;;;;;489882;240;1049;-68
2021/04/07 07:40:53;;;;;;;;;;;19.70;26.30;;;;;;490469;240;1205;-68
2021/04/07 07:42:55;;;;;;;;;;;19.80;26.30;;;;;;490964;240;1088;-69
2021/04/07 07:44:56;;;;;;;;;;;19.70;26.40;;;;;;490779;240;1305;-68
2021/04/07 07:46:59;;;;;;;;;;;19.70;26.30;;;;;;490967;240;1216;-68
2021/04/07 07:49:01;;;;;;;;;;;19.80;26.30;;;;;;490949;240;1287;-68
2021/04/07 07:51:01;;;;;;;;;;;19.80;26.20;;;;;;490857;242;1499;-68
2021/04/07 07:53:02;;;;;;;;;;;19.80;26.20;;;;;;490922;240;2183;-68
2021/04/07 07:55:04;;;;;;;;;;;19.80;26.20;;;;;;490911;240;1157;-68
2021/04/07 07:57:05;;;;;;;;;;;19.80;26.20;;;;;;491023;240;1181;-68
2021/04/07 07:59:06;;;;;;;;;;;19.80;26.30;;;;;;490748;240;1007;-68
2021/04/07 08:01:07;;;;;;;;;;;19.80;26.20;;;;;;490667;240;1518;-68
2021/04/07 08:03:09;;;;;;;;;;;19.80;26.20;;;;;;490910;240;1854;-68
2021/04/07 08:05:10;;;;;;;;;;;19.70;26.20;;;;;;490922;240;1125;-68
2021/04/07 08:07:11;;;;;;;;;;;19.80;26.20;;;;;;490761;240;1169;-68
2021/04/07 08:09:12;;;;;;;;;;;19.80;26.20;;;;;;490764;240;1058;-68
2021/04/07 08:11:14;;;;;;;;;;;19.80;26.20;;;;;;490848;240;1119;-68
2021/04/07 08:13:15;;;;;;;;;;;19.80;26.20;;;;;;490932;240;2192;-68
2021/04/07 08:15:16;;;;;;;;;;;19.80;26.30;;;;;;491371;240;1055;-68
2021/04/07 08:17:18;;;;;;;;;;;19.90;26.20;;;;;;490683;240;1203;-68
2021/04/07 08:19:19;;;;;;;;;;;19.90;26.10;;;;;;490797;240;1212;-68
2021/04/07 08:21:20;;;;;;;;;;;19.90;26.10;;;;;;490633;240;1187;-68
2021/04/07 08:23:21;;;;;;;;;;;19.90;26.10;;;;;;490842;240;1175;-68
2021/04/07 08:25:23;;;;;;;;;;;19.90;26.10;;;;;;491087;240;1219;-68
2021/04/07 08:27:25;;;;;;;;;;;19.90;26.10;;;;;;490839;240;1125;-68
2021/04/07 08:29:25;;;;;;;;;;;19.90;26.10;;;;;;490948;240;1262;-68
2021/04/07 08:31:27;;;;;;;;;;;19.90;26.10;;;;;;490770;240;1270;-68
2021/04/07 08:33:28;;;;;;;;;;;19.90;26.10;;;;;;490770;238;2121;-68
2021/04/07 08:35:30;;;;;;;;;;;20.00;26.10;;;;;;490721;240;1074;-68
2021/04/07 08:37:31;;;;;;;;;;;20.00;26.10;;;;;;490950;240;1215;-68
2021/04/07 08:39:33;;;;;;;;;;;19.90;26.10;;;;;;490835;240;1052;-68
2021/04/07 08:41:34;;;;;;;;;;;20.00;26.10;;;;;;490985;240;1127;-68
2021/04/07 08:43:35;;;;;;;;;;;20.00;26.10;;;;;;490987;240;1010;-68
2021/04/07 08:45:36;;;;;;;;;;;19.90;26.20;;;;;;490795;240;1064;-68
2021/04/07 08:47:45;;;;;;;;;;;19.90;26.20;;;;;;490969;240;1102;-68
2021/04/07 08:49:45;;;;;;;;;;;19.90;26.20;;;;;;490629;241;1390;-68
2021/04/07 08:51:46;;;;;;;;;;;20.00;26.20;;;;;;490556;240;1085;-68
2021/04/07 08:53:50;;;;;;;;;;;20.00;26.10;;;;;;490752;242;2184;-68
2021/04/07 08:55:49;;;;;;;;;;;20.10;26.10;;;;;;490716;241;1299;-68
2021/04/07 08:57:50;;;;;;;;;;;20.00;26.00;;;;;;490945;240;1168;-68
2021/04/07 08:59:51;;;;;;;;;;;20.10;26.10;;;;;;490841;240;1069;-68
2021/04/07 09:01:52;;;;;;;;;;;20.00;26.00;;;;;;490774;240;1672;-68
2021/04/07 09:03:54;;;;;;;;;;;20.00;26.00;;;;;;490893;240;1162;-68
2021/04/07 09:05:55;;;;;;;;;;;20.10;26.00;;;;;;491003;240;997;-68
2021/04/07 09:07:56;;;;;;;;;;;20.00;26.00;;;;;;490895;240;1108;-68
2021/04/07 09:09:58;;;;;;;;;;;20.10;26.00;;;;;;490782;240;1025;-68
2021/04/07 09:11:59;;;;;;;;;;;20.10;26.00;;;;;;490682;240;1152;-68
2021/04/07 09:14:02;;;;;;;;;;;20.00;26.00;;;;;;490561;240;2184;-69
2021/04/07 09:16:02;;;;;;;;;;;20.00;26.00;;;;;;489918;242;1401;-68
2021/04/07 09:18:03;;;;;;;;;;;20.00;26.00;;;;;;490647;241;1274;-68
2021/04/07 09:20:04;;;;;;;;;;;20.00;26.00;;;;;;490834;240;1090;-68
2021/04/07 09:22:06;;;;;;;;;;;20.00;25.90;;;;;;490918;240;1174;-68
2021/04/07 09:24:07;;;;;;;;;;;20.10;26.00;;;;;;491041;240;1145;-68
2021/04/07 09:26:08;;;;;;;;;;;20.00;26.00;;;;;;490779;238;1106;-68
2021/04/07 09:28:09;;;;;;;;;;;20.00;26.00;;;;;;490756;240;1152;-68
2021/04/07 09:30:11;;;;;;;;;;;20.10;26.00;;;;;;490607;240;1107;-68
2021/04/07 09:32:12;;;;;;;;;;;20.10;26.00;;;;;;490588;240;1088;-68
2021/04/07 09:34:14;;;;;;;;;;;20.20;26.00;;;;;;490762;240;2180;-68
2021/04/07 09:36:15;;;;;;;;;;;20.20;25.80;;;;;;490726;240;1063;-68
2021/04/07 09:38:16;;;;;;;;;;;20.20;25.80;;;;;;490748;240;1046;-68
2021/04/07 09:40:18;;;;;;;;;;;20.20;25.80;;;;;;490196;240;1295;-68
2021/04/07 09:42:19;;;;;;;;;;;20.10;25.90;;;;;;490665;240;1074;-68
2021/04/07 09:44:20;;;;;;;;;;;20.10;25.90;;;;;;490798;240;1095;-68
2021/04/07 09:46:22;;;;;;;;;;;20.10;25.90;;;;;;490829;240;1219;-68
2021/04/07 09:48:23;;;;;;;;;;;20.10;25.90;;;;;;490740;240;1109;-68
2021/04/07 09:50:24;;;;;;;;;;;20.00;26.00;;;;;;490628;240;1303;-68
2021/04/07 09:52:25;;;;;;;;;;;20.10;26.00;;;;;;490709;240;1214;-68
2021/04/07 09:54:27;;;;;;;;;;;20.10;26.00;;;;;;490847;240;1151;-68
2021/04/07 09:56:28;;;;;;;;;;;20.00;26.10;;;;;;490731;240;1075;-68
2021/04/07 09:58:29;;;;;;;;;;;20.00;26.00;;;;;;490819;240;1322;-68
2021/04/07 10:00:31;;;;;;;;;;;20.00;26.00;;;;;;490743;240;1117;-68
2021/04/07 10:02:33;;;;;;;;;;;20.00;26.00;;;;;;490883;240;1085;-68
2021/04/07 10:04:33;;;;;;;;;;;20.10;26.00;;;;;;490687;240;1357;-68
2021/04/07 10:06:34;;;;;;;;;;;20.20;25.90;;;;;;490577;240;1197;-68
2021/04/07 10:08:36;;;;;;;;;;;20.10;25.90;;;;;;491040;240;1344;-68
2021/04/07 10:10:37;;;;;;;;;;;20.10;26.00;;;;;;491076;240;1065;-68
2021/04/07 10:12:38;;;;;;;;;;;20.10;26.10;;;;;;490865;240;2187;-68
2021/04/07 10:14:39;;;;;;;;;;;20.00;26.10;;;;;;490799;240;1156;-68
2021/04/07 10:16:41;;;;;;;;;;;20.10;26.20;;;;;;490775;240;1414;-68
2021/04/07 10:18:42;;;;;;;;;;;20.00;26.20;;;;;;490797;240;1130;-68
2021/04/07 10:20:43;;;;;;;;;;;20.10;26.20;;;;;;490657;240;1301;-68
2021/04/07 10:22:46;;;;;;;;;;;20.10;26.30;;;;;;490664;240;1234;-68
2021/04/07 10:24:47;;;;;;;;;;;20.00;26.30;;;;;;490777;240;1304;-68
2021/04/07 10:26:47;;;;;;;;;;;20.10;26.30;;;;;;490661;240;1231;-68
2021/04/07 10:28:49;;;;;;;;;;;20.10;26.30;;;;;;490723;240;1103;-68
2021/04/07 10:30:50;;;;;;;;;;;20.00;26.40;;;;;;490876;240;1051;-68
2021/04/07 10:32:51;;;;;;;;;;;20.10;26.40;;;;;;490816;241;2168;-68
2021/04/07 10:34:52;;;;;;;;;;;20.00;26.40;;;;;;490754;240;1205;-68
2021/04/07 10:36:54;;;;;;;;;;;20.00;26.30;;;;;;490838;240;1312;-68
2021/04/07 10:38:55;;;;;;;;;;;20.00;26.40;;;;;;490802;240;1114;-68
2021/04/07 10:40:56;;;;;;;;;;;20.10;26.30;;;;;;490903;240;1179;-68
2021/04/07 10:42:58;;;;;;;;;;;20.10;26.30;;;;;;490999;240;1186;-68
2021/04/07 10:44:59;;;;;;;;;;;20.10;26.30;;;;;;490902;240;1105;-68
2021/04/07 10:47:00;;;;;;;;;;;20.20;26.30;;;;;;490960;240;1256;-68
2021/04/07 10:49:01;;;;;;;;;;;20.20;26.30;;;;;;490867;240;1079;-68
2021/04/07 10:51:03;;;;;;;;;;;20.20;26.40;;;;;;490917;238;1259;-68
2021/04/07 10:53:04;;;;;;;;;;;20.20;26.20;;;;;;490831;240;2125;-68
2021/04/07 10:55:05;;;;;;;;;;;20.20;26.30;;;;;;490680;240;1037;-68
2021/04/07 10:57:07;;;;;;;;;;;20.30;26.20;;;;;;490561;240;1065;-68
2021/04/07 10:59:12;;;;;;;;;;;20.20;26.10;;;;;;490724;240;1139;-68
2021/04/07 11:01:09;;;;;;;;;;;20.30;26.00;;;;;;490540;241;1409;-68
2021/04/07 11:03:11;;;;;;;;;;;20.40;26.00;;;;;;490687;240;1158;-68
2021/04/07 11:05:12;;;;;;;;;;;20.30;26.00;;;;;;490530;240;1150;-68
2021/04/07 11:07:13;;;;;;;;;;;20.40;25.90;;;;;;490595;240;1295;-68
2021/04/07 11:09:15;;;;;;;;;;;20.30;25.90;;;;;;490656;240;1098;-68
2021/04/07 11:11:16;;;;;;;;;;;20.40;25.90;;;;;;490654;240;1349;-68
2021/04/07 11:13:17;;;;;;;;;;;20.40;25.70;;;;;;490787;240;2168;-68
2021/04/07 11:15:19;;;;;;;;;;;20.40;25.70;;;;;;490846;240;1254;-68
2021/04/07 11:17:20;;;;;;;;;;;20.40;25.70;;;;;;490873;240;1257;-68
2021/04/07 11:19:22;;;;;;;;;;;20.40;25.70;;;;;;490702;240;1103;-68
2021/04/07 11:21:23;;;;;;;;;;;20.40;25.70;;;;;;490693;240;1118;-68
2021/04/07 11:23:24;;;;;;;;;;;20.50;25.70;;;;;;490777;240;1163;-68
2021/04/07 11:25:26;;;;;;;;;;;20.50;25.60;;;;;;489912;240;1128;-68
2021/04/07 11:27:27;;;;;;;;;;;20.40;25.70;;;;;;490285;241;2248;-68
2021/04/07 11:29:28;;;;;;;;;;;20.50;25.70;;;;;;490618;240;1135;-68
2021/04/07 11:31:32;;;;;;;;;;;20.50;25.60;;;;;;490597;240;1061;-68
2021/04/07 11:33:37;;;;;;;;;;;20.60;25.60;;;;;;490634;242;2165;-68
2021/04/07 11:35:40;;;;;;;;;;;20.60;25.60;;;;;;490912;241;1383;-68
2021/04/07 11:37:43;;;;;;;;;;;20.80;25.40;;;;;;490901;241;1437;-68
2021/04/07 11:39:48;;;;;;;;;;;20.70;25.40;;;;;;490877;241;1404;-68
2021/04/07 11:44:28;;;;;;;;;;;20.70;25.50;;;;;;490847;240;1083;-68
2021/04/07 11:46:29;;;;;;;;;;;20.70;25.50;;;;;;490917;240;1241;-68
2021/04/07 11:48:30;;;;;;;;;;;20.70;25.50;;;;;;490904;240;1122;-68
2021/04/07 11:50:32;;;;;;;;;;;20.60;25.40;;;;;;490775;240;1274;-68
2021/04/07 11:52:33;;;;;;;;;;;20.70;25.30;;;;;;490853;240;1213;-68
2021/04/07 11:54:35;;;;;;;;;;;20.70;25.30;;;;;;490792;240;2140;-68
2021/04/07 11:56:36;;;;;;;;;;;20.60;25.40;;;;;;490773;240;1104;-68
2021/04/07 11:58:38;;;;;;;;;;;20.60;25.50;;;;;;490903;240;1063;-68
2021/04/07 12:00:39;;;;;;;;;;;20.70;25.50;;;;;;490779;240;1605;-68